Union Cy, Tennessee
Current Conditions -  °F | °C
As of 9:35 PM on Monday 20 Oct 2014 (Local Time) from KUCY Reporting Station
Overcast Overcast  
Wind Chill: 57°   Ceiling: 6500
Heat Index: 57°   Visibility: 10mi
Dew Point: 54°   Wind: 3mph
Humidity: 88%   Direction: 220°SW
Pressure: 30"   Gusts: NA
Location:  36.4211°N, 89.0662°W
Report Text: KUCY 210235Z AUTO 22003KT 10SM BKN065 OVC075 14/12 A3000 RMK
Loading
Personal Weather Stations






























Interactive Weather Map
Tropical Storm Tracking
New forecast layout! Learn more

10-Day Weather Forecast

Advertisements
Track Severe Weather on mobile